Time;durP1;ratioP1;P1;durP2;ratioP2;P2;SDS_P1;SDS_P2;PMS_P1;PMS_P2;Temp;Humidity;BMP_temperature;BMP_pressure;BME280_temperature;BME280_humidity;BME280_pressure;Samples;Min_cycle;Max_cycle;Signal;HPM_P1;HPM_P2
2022/05/24 00:01:03;;;;;;;;;;;;;;;;;;5037730;28;28238;-84
2022/05/24 00:03:28;;;;;;;;;;;;;;;;;;5037515;28;28499;-84
2022/05/24 00:05:54;;;;;;;;;;;;;;;;;;5037625;28;28324;-84
2022/05/24 00:08:19;;;;;;;;;;;;;;;;;;5037288;28;28818;-83
2022/05/24 00:10:44;;;;;;;;;;;;;;;;;;5037867;28;28365;-83
2022/05/24 00:13:10;;;;;;;;;;;;;;;;;;5037332;28;29363;-84
2022/05/24 00:15:35;;;;;;;;;;;;;;;;;;5037652;28;28209;-84
2022/05/24 00:18:00;;;;;;;;;;;;;;;;;;5037241;28;28439;-84
2022/05/24 00:20:25;;;;;;;;;;;;;;;;;;5037108;28;28497;-84
2022/05/24 00:22:51;;;;;;;;;;;;;;;;;;5037261;28;28514;-84
2022/05/24 00:25:16;;;;;;;;;;;;;;;;;;5037400;28;28384;-84
2022/05/24 00:27:41;;;;;;;;;;;;;;;;;;5037481;28;28392;-84
2022/05/24 00:30:06;;;;;;;;;;;;;;;;;;5037469;28;28544;-84
2022/05/24 00:32:35;;;;;;;;;;;;;;;;;;5036789;28;34257;-84
2022/05/24 00:35:00;;;;;;;;;;;;;;;;;;5037462;28;28337;-84
2022/05/24 00:37:25;;;;;;;;;;;;;;;;;;5037071;28;29002;-84
2022/05/24 00:39:50;;;;;;;;;;;;;;;;;;5037281;28;28253;-83
2022/05/24 00:42:15;;;;;;;;;;;;;;;;;;5037280;28;29538;-84
2022/05/24 00:44:40;;;;;;;;;;;;;;;;;;5036869;28;28394;-84
2022/05/24 00:47:06;;;;;;;;;;;;;;;;;;5037215;28;28302;-83
2022/05/24 00:49:31;;;;;;;;;;;;;;;;;;5036735;28;28238;-84
2022/05/24 00:51:59;;;;;;;;;;;;;;;;;;5036940;28;28724;-83
2022/05/24 00:54:24;;;;;;;;;;;;;;;;;;5037076;28;28353;-84
2022/05/24 00:56:49;;;;;;;;;;;;;;;;;;5036751;28;28238;-84
2022/05/24 00:59:14;;;;;;;;;;;;;;;;;;5037090;28;28456;-84
2022/05/24 01:01:39;;;;;;;;;;;;;;;;;;5036709;28;28565;-84
2022/05/24 01:04:04;;;;;;;;;;;;;;;;;;5036552;28;28443;-84
2022/05/24 01:06:29;;;;;;;;;;;;;;;;;;5036905;28;28428;-84
2022/05/24 01:08:54;;;;;;;;;;;;;;;;;;5036497;28;28472;-84
2022/05/24 01:11:20;;;;;;;;;;;;;;;;;;5036681;28;29738;-85
2022/05/24 01:13:45;;;;;;;;;;;;;;;;;;5036404;28;32110;-84
2022/05/24 01:16:10;;;;;;;;;;;;;;;;;;5036581;28;28333;-84
2022/05/24 01:18:35;;;;;;;;;;;;;;;;;;5036516;28;28381;-84
2022/05/24 01:21:00;;;;;;;;;;;;;;;;;;5036346;28;28475;-84
2022/05/24 01:23:25;;;;;;;;;;;;;;;;;;5036570;28;28491;-84
2022/05/24 01:25:50;;;;;;;;;;;;;;;;;;5036396;28;28324;-85
2022/05/24 01:28:15;;;;;;;;;;;;;;;;;;5036487;28;28361;-85
2022/05/24 01:30:40;;;;;;;;;;;;;;;;;;5035140;28;28392;-84
2022/05/24 01:38:36;;;;;;;;;;;;;;;;;;5036371;28;28465;-84
2022/05/24 01:41:01;;;;;;;;;;;;;;;;;;5035965;28;29486;-84
2022/05/24 01:43:26;;;;;;;;;;;;;;;;;;5036069;28;28723;-84
2022/05/24 01:45:51;;;;;;;;;;;;;;;;;;5036313;28;28568;-84
2022/05/24 01:48:16;;;;;;;;;;;;;;;;;;5036139;28;28309;-84
2022/05/24 01:50:42;;;;;;;;;;;;;;;;;;5036125;28;28462;-84
2022/05/24 01:53:07;;;;;;;;;;;;;;;;;;5035934;28;28415;-83
2022/05/24 01:55:32;;;;;;;;;;;;;;;;;;5035882;28;28417;-84
2022/05/24 01:58:00;;;;;;;;;;;;;;;;;;5036127;28;28423;-84
2022/05/24 02:00:25;;;;;;;;;;;;;;;;;;5035743;28;28483;-84
2022/05/24 02:02:53;;;;;;;;;;;;;;;;;;5035791;28;28282;-84
2022/05/24 02:05:18;;;;;;;;;;;;;;;;;;5035627;28;28471;-84
2022/05/24 02:07:43;;;;;;;;;;;;;;;;;;5035778;28;28378;-84
2022/05/24 02:10:11;;;;;;;;;;;;;;;;;;5035528;28;29591;-84
2022/05/24 02:12:36;;;;;;;;;;;;;;;;;;5035465;28;28434;-84
2022/05/24 02:15:01;;;;;;;;;;;;;;;;;;5035990;28;28336;-84
2022/05/24 02:17:26;;;;;;;;;;;;;;;;;;5035576;28;28394;-84
2022/05/24 02:19:51;;;;;;;;;;;;;;;;;;5035279;28;28441;-84
2022/05/24 02:22:17;;;;;;;;;;;;;;;;;;5035686;28;28327;-84
2022/05/24 02:24:42;;;;;;;;;;;;;;;;;;5035695;28;27781;-84
2022/05/24 02:27:07;;;;;;;;;;;;;;;;;;5035577;28;28321;-84
2022/05/24 02:29:32;;;;;;;;;;;;;;;;;;5035343;28;28600;-84
2022/05/24 02:31:57;;;;;;;;;;;;;;;;;;5035281;28;28341;-84
2022/05/24 02:34:22;;;;;;;;;;;;;;;;;;5035357;28;27832;-84
2022/05/24 02:36:47;;;;;;;;;;;;;;;;;;5035488;28;28332;-84
2022/05/24 02:39:12;;;;;;;;;;;;;;;;;;5035301;28;29094;-84
2022/05/24 02:41:38;;;;;;;;;;;;;;;;;;5035095;28;28460;-84
2022/05/24 02:44:03;;;;;;;;;;;;;;;;;;5035158;28;28460;-84
2022/05/24 02:46:28;;;;;;;;;;;;;;;;;;5035544;28;27833;-84
2022/05/24 02:48:53;;;;;;;;;;;;;;;;;;5034735;28;28605;-83
2022/05/24 02:51:18;;;;;;;;;;;;;;;;;;5035226;28;28416;-84
2022/05/24 02:53:43;;;;;;;;;;;;;;;;;;5034947;28;28467;-84
2022/05/24 02:56:08;;;;;;;;;;;;;;;;;;5035036;28;28376;-84
2022/05/24 02:58:33;;;;;;;;;;;;;;;;;;5035044;28;29552;-84
2022/05/24 03:00:58;;;;;;;;;;;;;;;;;;5034990;28;28572;-84
2022/05/24 03:03:24;;;;;;;;;;;;;;;;;;5035317;28;28703;-84
2022/05/24 03:05:49;;;;;;;;;;;;;;;;;;5035009;28;28413;-84
2022/05/24 03:10:58;;;;;;;;;;;;;;;;;;5034708;28;28353;-84
2022/05/24 03:16:06;;;;;;;;;;;;;;;;;;5034962;28;28352;-84
2022/05/24 03:18:31;;;;;;;;;;;;;;;;;;5034913;28;28491;-84
2022/05/24 03:20:57;;;;;;;;;;;;;;;;;;5034609;28;28400;-84
2022/05/24 03:23:22;;;;;;;;;;;;;;;;;;5034645;28;28418;-84
2022/05/24 03:25:47;;;;;;;;;;;;;;;;;;5034839;28;28487;-83
2022/05/24 03:28:12;;;;;;;;;;;;;;;;;;5034483;28;28452;-84
2022/05/24 03:30:37;;;;;;;;;;;;;;;;;;5034691;28;28455;-84
2022/05/24 03:33:02;;;;;;;;;;;;;;;;;;5034492;28;28549;-84
2022/05/24 03:35:27;;;;;;;;;;;;;;;;;;5034543;28;28483;-84
2022/05/24 03:37:52;;;;;;;;;;;;;;;;;;5034401;28;29392;-84
2022/05/24 03:40:17;;;;;;;;;;;;;;;;;;5034524;28;28484;-84
2022/05/24 03:42:42;;;;;;;;;;;;;;;;;;5034958;28;28451;-85
2022/05/24 03:45:08;;;;;;;;;;;;;;;;;;5016592;28;28385;-84
2022/05/24 03:47:33;;;;;;;;;;;;;;;;;;5034210;28;28300;-84
2022/05/24 03:49:58;;;;;;;;;;;;;;;;;;5034429;28;28345;-84
2022/05/24 03:52:23;;;;;;;;;;;;;;;;;;5034383;28;28380;-84
2022/05/24 03:54:48;;;;;;;;;;;;;;;;;;5036774;28;28481;-84
2022/05/24 03:59:57;;;;;;;;;;;;;;;;;;5037442;28;28385;-84
2022/05/24 04:02:22;;;;;;;;;;;;;;;;;;5038113;28;28647;-84
2022/05/24 04:04:47;;;;;;;;;;;;;;;;;;5037750;28;28903;-84
2022/05/24 04:07:12;;;;;;;;;;;;;;;;;;5037463;28;28595;-84
2022/05/24 04:09:37;;;;;;;;;;;;;;;;;;5037530;28;28376;-84
2022/05/24 04:12:04;;;;;;;;;;;;;;;;;;5037478;28;28389;-84
2022/05/24 04:14:29;;;;;;;;;;;;;;;;;;5037955;28;28286;-84
2022/05/24 04:16:55;;;;;;;;;;;;;;;;;;5037206;28;28465;-84
2022/05/24 04:19:20;;;;;;;;;;;;;;;;;;5037137;28;28293;-84
2022/05/24 04:21:45;;;;;;;;;;;;;;;;;;5037618;28;28394;-84
2022/05/24 04:24:10;;;;;;;;;;;;;;;;;;5037376;28;28404;-85
2022/05/24 04:26:35;;;;;;;;;;;;;;;;;;5037527;28;28412;-84
2022/05/24 04:29:00;;;;;;;;;;;;;;;;;;5037141;28;28342;-86
2022/05/24 04:31:25;;;;;;;;;;;;;;;;;;5037160;28;28536;-83
2022/05/24 04:33:51;;;;;;;;;;;;;;;;;;5037243;28;28502;-84
2022/05/24 04:36:16;;;;;;;;;;;;;;;;;;5036891;28;28521;-84
2022/05/24 04:38:41;;;;;;;;;;;;;;;;;;5036863;28;28424;-84
2022/05/24 04:43:50;;;;;;;;;;;;;;;;;;5037080;28;28336;-85
2022/05/24 04:46:15;;;;;;;;;;;;;;;;;;5036939;28;28558;-85
2022/05/24 04:48:40;;;;;;;;;;;;;;;;;;5036953;28;28446;-84
2022/05/24 04:51:05;;;;;;;;;;;;;;;;;;5036704;28;28412;-84
2022/05/24 04:53:30;;;;;;;;;;;;;;;;;;5037252;28;35731;-84
2022/05/24 04:55:56;;;;;;;;;;;;;;;;;;5036611;28;29590;-85
2022/05/24 04:58:21;;;;;;;;;;;;;;;;;;5036922;28;28343;-84
2022/05/24 05:00:46;;;;;;;;;;;;;;;;;;5036551;28;28357;-83
2022/05/24 05:03:11;;;;;;;;;;;;;;;;;;5036836;28;28309;-83
2022/05/24 05:05:36;;;;;;;;;;;;;;;;;;5035196;28;29335;-84
2022/05/24 05:08:02;;;;;;;;;;;;;;;;;;5018627;28;29204;-83
2022/05/24 05:10:27;;;;;;;;;;;;;;;;;;5036533;28;28353;-83
2022/05/24 05:12:52;;;;;;;;;;;;;;;;;;5036834;28;28321;-84
2022/05/24 05:15:17;;;;;;;;;;;;;;;;;;5036327;28;29429;-82
2022/05/24 05:17:42;;;;;;;;;;;;;;;;;;5036064;28;28376;-84
2022/05/24 05:20:07;;;;;;;;;;;;;;;;;;5036224;28;28518;-83
2022/05/24 05:22:32;;;;;;;;;;;;;;;;;;5036761;28;28428;-84
2022/05/24 05:24:57;;;;;;;;;;;;;;;;;;5036438;28;28586;-84
2022/05/24 05:27:22;;;;;;;;;;;;;;;;;;5036468;28;28300;-83
2022/05/24 05:32:31;;;;;;;;;;;;;;;;;;5036305;28;28411;-83
2022/05/24 05:34:56;;;;;;;;;;;;;;;;;;5036033;28;28439;-83
2022/05/24 05:37:21;;;;;;;;;;;;;;;;;;5036457;28;28349;-83
2022/05/24 05:39:47;;;;;;;;;;;;;;;;;;5036035;28;27815;-83
2022/05/24 05:42:12;;;;;;;;;;;;;;;;;;5036452;28;28232;-83
2022/05/24 05:44:37;;;;;;;;;;;;;;;;;;5035843;28;28424;-83
2022/05/24 05:47:02;;;;;;;;;;;;;;;;;;5036202;28;28376;-82
2022/05/24 05:49:27;;;;;;;;;;;;;;;;;;5036077;28;28325;-82
2022/05/24 05:51:52;;;;;;;;;;;;;;;;;;5012083;28;28461;-83
2022/05/24 05:54:17;;;;;;;;;;;;;;;;;;5005567;28;28368;-82
2022/05/24 05:56:42;;;;;;;;;;;;;;;;;;5015839;28;28266;-83
2022/05/24 05:59:07;;;;;;;;;;;;;;;;;;5016090;28;28323;-83
2022/05/24 06:01:33;;;;;;;;;;;;;;;;;;5016081;28;35678;-83
2022/05/24 06:03:58;;;;;;;;;;;;;;;;;;5015907;28;29572;-83
2022/05/24 06:06:23;;;;;;;;;;;;;;;;;;5015784;28;28384;-83
2022/05/24 06:08:48;;;;;;;;;;;;;;;;;;5020180;28;28329;-83
2022/05/24 06:11:13;;;;;;;;;;;;;;;;;;5035974;28;28289;-83
2022/05/24 06:13:38;;;;;;;;;;;;;;;;;;5035480;28;28340;-83
2022/05/24 06:16:03;;;;;;;;;;;;;;;;;;5035208;28;28349;-83
2022/05/24 06:18:28;;;;;;;;;;;;;;;;;;5035641;28;28412;-82
2022/05/24 06:20:54;;;;;;;;;;;;;;;;;;5035474;28;28361;-82
2022/05/24 06:23:19;;;;;;;;;;;;;;;;;;5035843;28;28357;-83
2022/05/24 06:25:44;;;;;;;;;;;;;;;;;;5035387;28;28487;-84
2022/05/24 06:28:09;;;;;;;;;;;;;;;;;;5035448;28;28428;-84
2022/05/24 06:30:34;;;;;;;;;;;;;;;;;;5035703;28;28382;-84
2022/05/24 06:32:59;;;;;;;;;;;;;;;;;;5035405;28;30202;-84
2022/05/24 06:35:24;;;;;;;;;;;;;;;;;;5035430;28;28020;-84
2022/05/24 06:37:49;;;;;;;;;;;;;;;;;;5035313;28;28389;-84
2022/05/24 06:40:14;;;;;;;;;;;;;;;;;;5035796;28;28321;-84
2022/05/24 06:42:40;;;;;;;;;;;;;;;;;;5035170;28;28428;-84
2022/05/24 06:45:05;;;;;;;;;;;;;;;;;;5035248;28;28409;-84
2022/05/24 06:47:30;;;;;;;;;;;;;;;;;;5035263;28;28353;-85
2022/05/24 06:49:56;;;;;;;;;;;;;;;;;;5035273;28;28515;-84
2022/05/24 06:52:21;;;;;;;;;;;;;;;;;;5035158;28;28656;-84
2022/05/24 06:54:46;;;;;;;;;;;;;;;;;;5035029;28;28419;-84
2022/05/24 06:57:11;;;;;;;;;;;;;;;;;;5017154;28;28518;-84
2022/05/24 07:02:26;;;;;;;;;;;;;;;;;;5034908;28;28361;-85
2022/05/24 07:04:51;;;;;;;;;;;;;;;;;;5034906;28;28350;-84
2022/05/24 07:07:16;;;;;;;;;;;;;;;;;;5034924;28;28262;-85
2022/05/24 07:09:42;;;;;;;;;;;;;;;;;;5034946;28;28273;-84
2022/05/24 07:12:07;;;;;;;;;;;;;;;;;;5034731;28;29188;-85
2022/05/24 07:14:32;;;;;;;;;;;;;;;;;;5034910;28;28389;-84
2022/05/24 07:16:57;;;;;;;;;;;;;;;;;;5034749;28;28227;-85
2022/05/24 07:19:24;;;;;;;;;;;;;;;;;;5035084;28;28314;-85
2022/05/24 07:21:49;;;;;;;;;;;;;;;;;;5034520;28;28489;-84
2022/05/24 07:24:14;;;;;;;;;;;;;;;;;;5034563;28;28356;-84
2022/05/24 07:26:39;;;;;;;;;;;;;;;;;;5035041;28;28400;-84
2022/05/24 07:29:04;;;;;;;;;;;;;;;;;;5017959;28;28645;-84
2022/05/24 07:31:30;;;;;;;;;;;;;;;;;;5038306;28;29575;-84
2022/05/24 07:33:55;;;;;;;;;;;;;;;;;;5038091;28;28489;-84
2022/05/24 07:36:20;;;;;;;;;;;;;;;;;;5037999;28;28445;-85
2022/05/24 07:38:46;;;;;;;;;;;;;;;;;;5038293;28;28309;-84
2022/05/24 07:46:38;;;;;;;;;;;;;;;;;;5038090;28;28254;-88
2022/05/24 07:49:05;;;;;;;;;;;;;;;;;;5038150;28;28442;-87
2022/05/24 07:51:30;;;;;;;;;;;;;;;;;;5037783;28;29533;-87
2022/05/24 07:53:55;;;;;;;;;;;;;;;;;;5038014;28;28367;-87
2022/05/24 07:56:20;;;;;;;;;;;;;;;;;;5037838;28;28404;-85
2022/05/24 07:58:45;;;;;;;;;;;;;;;;;;5037943;28;28387;-87
2022/05/24 08:01:10;;;;;;;;;;;;;;;;;;5037946;28;28468;-87
2022/05/24 08:03:35;;;;;;;;;;;;;;;;;;5037778;28;28430;-87
2022/05/24 08:06:01;;;;;;;;;;;;;;;;;;5037448;28;28461;-89
2022/05/24 08:08:26;;;;;;;;;;;;;;;;;;5037314;28;28344;-89
2022/05/24 08:10:51;;;;;;;;;;;;;;;;;;5037482;28;28403;-88
2022/05/24 08:13:17;;;;;;;;;;;;;;;;;;5037536;28;31417;-88
2022/05/24 08:15:42;;;;;;;;;;;;;;;;;;5037466;28;28336;-88
2022/05/24 08:18:07;;;;;;;;;;;;;;;;;;5037183;28;28360;-88
2022/05/24 08:20:32;;;;;;;;;;;;;;;;;;5037334;28;28790;-88
2022/05/24 08:22:57;;;;;;;;;;;;;;;;;;5037353;28;28525;-88
2022/05/24 08:25:22;;;;;;;;;;;;;;;;;;5036291;28;28522;-87
2022/05/24 08:27:47;;;;;;;;;;;;;;;;;;5037228;28;28532;-88
2022/05/24 08:30:12;;;;;;;;;;;;;;;;;;5037229;28;28379;-88
2022/05/24 08:32:37;;;;;;;;;;;;;;;;;;5037053;28;28393;-88
2022/05/24 08:35:03;;;;;;;;;;;;;;;;;;5037413;28;28326;-88
2022/05/24 08:37:29;;;;;;;;;;;;;;;;;;5037031;28;28352;-87
2022/05/24 08:39:57;;;;;;;;;;;;;;;;;;5036831;28;28513;-86
2022/05/24 08:42:22;;;;;;;;;;;;;;;;;;5037256;28;28370;-87
2022/05/24 08:50:15;;;;;;;;;;;;;;;;;;5036493;28;28461;-89
2022/05/24 08:52:40;;;;;;;;;;;;;;;;;;5036771;28;28352;-88
2022/05/24 08:55:06;;;;;;;;;;;;;;;;;;5036879;28;28281;-87
2022/05/24 08:57:31;;;;;;;;;;;;;;;;;;5036979;28;28337;-88
2022/05/24 08:59:56;;;;;;;;;;;;;;;;;;5036557;28;28636;-87
2022/05/24 09:02:22;;;;;;;;;;;;;;;;;;5036846;28;28286;-86
2022/05/24 09:04:47;;;;;;;;;;;;;;;;;;5036641;28;28471;-87
2022/05/24 09:07:12;;;;;;;;;;;;;;;;;;5036600;28;28385;-87
2022/05/24 09:09:37;;;;;;;;;;;;;;;;;;5036448;28;29579;-87
2022/05/24 09:12:02;;;;;;;;;;;;;;;;;;5036232;28;28353;-86
2022/05/24 09:14:27;;;;;;;;;;;;;;;;;;5036683;28;28247;-87
2022/05/24 09:16:54;;;;;;;;;;;;;;;;;;5036734;28;28320;-87
2022/05/24 09:19:19;;;;;;;;;;;;;;;;;;5036207;28;28677;-86
2022/05/24 09:21:47;;;;;;;;;;;;;;;;;;5036312;28;28599;-86
2022/05/24 09:24:12;;;;;;;;;;;;;;;;;;5036424;28;28393;-87
2022/05/24 09:26:38;;;;;;;;;;;;;;;;;;5036446;28;28479;-86
2022/05/24 09:29:03;;;;;;;;;;;;;;;;;;5036552;28;28515;-87
2022/05/24 09:31:30;;;;;;;;;;;;;;;;;;5036203;28;28538;-87
2022/05/24 09:33:55;;;;;;;;;;;;;;;;;;5036393;28;28317;-86
2022/05/24 09:36:20;;;;;;;;;;;;;;;;;;5036229;28;28475;-87
2022/05/24 09:38:45;;;;;;;;;;;;;;;;;;5036236;28;28500;-87
2022/05/24 09:41:10;;;;;;;;;;;;;;;;;;5036262;28;28241;-86
2022/05/24 09:43:36;;;;;;;;;;;;;;;;;;5036101;28;28285;-86
2022/05/24 09:46:01;;;;;;;;;;;;;;;;;;5036117;28;28316;-86
2022/05/24 09:48:26;;;;;;;;;;;;;;;;;;5035899;28;29381;-87
2022/05/24 09:50:52;;;;;;;;;;;;;;;;;;5035567;28;28353;-87
2022/05/24 09:53:17;;;;;;;;;;;;;;;;;;5035584;28;28457;-87
2022/05/24 09:55:42;;;;;;;;;;;;;;;;;;5036372;28;27842;-86
2022/05/24 09:58:07;;;;;;;;;;;;;;;;;;5035934;28;29020;-87
2022/05/24 10:00:32;;;;;;;;;;;;;;;;;;5035934;28;28484;-86
2022/05/24 10:02:57;;;;;;;;;;;;;;;;;;5035919;28;28487;-87
2022/05/24 10:05:22;;;;;;;;;;;;;;;;;;5036196;28;28270;-87
2022/05/24 10:07:48;;;;;;;;;;;;;;;;;;5035660;28;28442;-87
2022/05/24 10:10:13;;;;;;;;;;;;;;;;;;5035628;28;28243;-87
2022/05/24 10:12:38;;;;;;;;;;;;;;;;;;5017915;28;28439;-87
2022/05/24 10:15:03;;;;;;;;;;;;;;;;;;5035852;28;28384;-86
2022/05/24 10:17:28;;;;;;;;;;;;;;;;;;5035463;28;29776;-87
2022/05/24 10:19:53;;;;;;;;;;;;;;;;;;5035627;28;28907;-87
2022/05/24 10:22:18;;;;;;;;;;;;;;;;;;5035738;28;28633;-87
2022/05/24 10:24:44;;;;;;;;;;;;;;;;;;5035576;28;28530;-87
2022/05/24 10:27:13;;;;;;;;;;;;;;;;;;5035686;28;28697;-87
2022/05/24 10:29:38;;;;;;;;;;;;;;;;;;5035454;28;28324;-87
2022/05/24 10:32:03;;;;;;;;;;;;;;;;;;5035204;28;28425;-87
2022/05/24 10:38:17;;;;;;;;;;;;;;;;;;5036047;28;28574;-88
2022/05/24 10:39:57;;;;;;;;;;;;;;;;;;5034972;28;28383;-89
2022/05/24 10:42:23;;;;;;;;;;;;;;;;;;5035188;28;28416;-87
2022/05/24 10:44:48;;;;;;;;;;;;;;;;;;5044730;28;28451;-87
2022/05/24 10:47:13;;;;;;;;;;;;;;;;;;5035050;28;28448;-87
2022/05/24 10:49:39;;;;;;;;;;;;;;;;;;5035009;28;28407;-86
2022/05/24 10:52:04;;;;;;;;;;;;;;;;;;5034622;28;28415;-86
2022/05/24 10:54:30;;;;;;;;;;;;;;;;;;5034750;28;28422;-87
2022/05/24 10:56:55;;;;;;;;;;;;;;;;;;5035231;28;28353;-87
2022/05/24 10:59:21;;;;;;;;;;;;;;;;;;5034770;28;28402;-88
2022/05/24 11:01:46;;;;;;;;;;;;;;;;;;5035391;28;28515;-87
2022/05/24 11:04:11;;;;;;;;;;;;;;;;;;5042825;28;28379;-87
2022/05/24 11:06:38;;;;;;;;;;;;;;;;;;5038512;28;28985;-87
2022/05/24 11:09:03;;;;;;;;;;;;;;;;;;5029819;28;29352;-86
2022/05/24 11:11:29;;;;;;;;;;;;;;;;;;5031302;28;28939;-86
2022/05/24 11:13:55;;;;;;;;;;;;;;;;;;5037990;28;27865;-85
2022/05/24 11:16:20;;;;;;;;;;;;;;;;;;5038587;28;28386;-85
2022/05/24 11:18:45;;;;;;;;;;;;;;;;;;5042662;28;28641;-85
2022/05/24 11:21:10;;;;;;;;;;;;;;;;;;5055707;28;28475;-85
2022/05/24 11:23:35;;;;;;;;;;;;;;;;;;5038478;28;28468;-84
2022/05/24 11:26:00;;;;;;;;;;;;;;;;;;5044261;28;28534;-84
2022/05/24 11:28:25;;;;;;;;;;;;;;;;;;5038217;28;28372;-84
2022/05/24 11:30:50;;;;;;;;;;;;;;;;;;5048021;28;28519;-85
2022/05/24 11:33:16;;;;;;;;;;;;;;;;;;5050757;28;28601;-84
2022/05/24 11:35:41;;;;;;;;;;;;;;;;;;5049198;28;29084;-84
2022/05/24 11:38:06;;;;;;;;;;;;;;;;;;5038615;28;28514;-84
2022/05/24 11:40:31;;;;;;;;;;;;;;;;;;5040955;28;28396;-84
2022/05/24 11:42:56;;;;;;;;;;;;;;;;;;5038282;28;28393;-84
2022/05/24 11:45:21;;;;;;;;;;;;;;;;;;5038189;28;28361;-85
2022/05/24 11:47:46;;;;;;;;;;;;;;;;;;5038060;28;28503;-85
2022/05/24 11:50:11;;;;;;;;;;;;;;;;;;5022850;28;28399;-85
2022/05/24 11:52:36;;;;;;;;;;;;;;;;;;5052522;28;28628;-84
2022/05/24 11:55:02;;;;;;;;;;;;;;;;;;5036869;28;29608;-84
2022/05/24 11:57:27;;;;;;;;;;;;;;;;;;5037583;28;28535;-84
2022/05/24 11:59:52;;;;;;;;;;;;;;;;;;5038871;28;28401;-85
2022/05/24 12:02:17;;;;;;;;;;;;;;;;;;5046604;28;28487;-85
2022/05/24 12:10:20;;;;;;;;;;;;;;;;;;5015084;28;28361;-86
2022/05/24 12:12:46;;;;;;;;;;;;;;;;;;5018525;28;28544;-85
2022/05/24 12:15:11;;;;;;;;;;;;;;;;;;5014733;28;28455;-85
2022/05/24 12:17:36;;;;;;;;;;;;;;;;;;5013724;28;28484;-85
2022/05/24 12:20:01;;;;;;;;;;;;;;;;;;5014469;28;28493;-86
2022/05/24 12:22:32;;;;;;;;;;;;;;;;;;5015189;28;28500;-84
2022/05/24 12:24:58;;;;;;;;;;;;;;;;;;5014573;28;28464;-86
2022/05/24 12:27:29;;;;;;;;;;;;;;;;;;4995655;28;29560;-86
2022/05/24 12:29:54;;;;;;;;;;;;;;;;;;5031067;28;28360;-87
2022/05/24 12:32:20;;;;;;;;;;;;;;;;;;5014599;28;28585;-85
2022/05/24 12:34:45;;;;;;;;;;;;;;;;;;5013871;28;28552;-85
2022/05/24 12:37:10;;;;;;;;;;;;;;;;;;5014256;28;28327;-85
2022/05/24 12:39:36;;;;;;;;;;;;;;;;;;5014458;28;28578;-85
2022/05/24 12:42:02;;;;;;;;;;;;;;;;;;5014392;28;28436;-85
2022/05/24 12:44:29;;;;;;;;;;;;;;;;;;5014392;28;28519;-85
2022/05/24 12:46:54;;;;;;;;;;;;;;;;;;5017935;28;28483;-85
2022/05/24 12:49:20;;;;;;;;;;;;;;;;;;5036077;28;28420;-84
2022/05/24 12:51:45;;;;;;;;;;;;;;;;;;5036447;28;35338;-85
2022/05/24 12:54:10;;;;;;;;;;;;;;;;;;5036009;28;28769;-85
2022/05/24 12:56:35;;;;;;;;;;;;;;;;;;5018490;28;28603;-84
2022/05/24 12:59:00;;;;;;;;;;;;;;;;;;5035815;28;28680;-86
2022/05/24 13:01:28;;;;;;;;;;;;;;;;;;5036177;28;28488;-86
2022/05/24 13:03:53;;;;;;;;;;;;;;;;;;5036091;28;28562;-86
2022/05/24 13:06:19;;;;;;;;;;;;;;;;;;5035561;28;28510;-86
2022/05/24 13:08:44;;;;;;;;;;;;;;;;;;5035841;28;28854;-86
2022/05/24 13:11:09;;;;;;;;;;;;;;;;;;5036044;28;28377;-86
2022/05/24 13:13:37;;;;;;;;;;;;;;;;;;5031216;28;28730;-86
2022/05/24 13:16:03;;;;;;;;;;;;;;;;;;5016004;28;28456;-85
2022/05/24 13:18:28;;;;;;;;;;;;;;;;;;5015982;28;28428;-85
2022/05/24 13:20:53;;;;;;;;;;;;;;;;;;5015890;28;28374;-85
2022/05/24 13:23:18;;;;;;;;;;;;;;;;;;5015736;28;28425;-85
2022/05/24 13:25:43;;;;;;;;;;;;;;;;;;5015340;28;27913;-86
2022/05/24 13:28:08;;;;;;;;;;;;;;;;;;5015452;28;28497;-86
2022/05/24 13:33:33;;;;;;;;;;;;;;;;;;5015556;28;28764;-85
2022/05/24 13:35:58;;;;;;;;;;;;;;;;;;5009882;28;29178;-85
2022/05/24 13:38:24;;;;;;;;;;;;;;;;;;5016538;28;28683;-85
2022/05/24 13:40:49;;;;;;;;;;;;;;;;;;5015796;28;28471;-86
2022/05/24 13:43:14;;;;;;;;;;;;;;;;;;5032966;28;29142;-86
2022/05/24 13:45:39;;;;;;;;;;;;;;;;;;5027761;28;28322;-86
2022/05/24 13:48:05;;;;;;;;;;;;;;;;;;5033372;28;27773;-86
2022/05/24 13:50:30;;;;;;;;;;;;;;;;;;5022522;28;28231;-86
2022/05/24 13:52:55;;;;;;;;;;;;;;;;;;5020851;28;28555;-87
2022/05/24 13:55:21;;;;;;;;;;;;;;;;;;5018754;28;28415;-84
2022/05/24 13:57:46;;;;;;;;;;;;;;;;;;5032050;28;28413;-84
2022/05/24 14:00:11;;;;;;;;;;;;;;;;;;5035326;28;28467;-85
2022/05/24 14:02:36;;;;;;;;;;;;;;;;;;5035197;28;29239;-86
2022/05/24 14:05:01;;;;;;;;;;;;;;;;;;5034963;28;28357;-87
2022/05/24 14:07:28;;;;;;;;;;;;;;;;;;5035120;28;28436;-86
2022/05/24 14:09:53;;;;;;;;;;;;;;;;;;5030217;28;28906;-84
2022/05/24 14:12:18;;;;;;;;;;;;;;;;;;5033957;28;28585;-84
2022/05/24 14:14:46;;;;;;;;;;;;;;;;;;5033993;28;28466;-84
2022/05/24 14:17:11;;;;;;;;;;;;;;;;;;5034920;28;28464;-85
2022/05/24 14:19:36;;;;;;;;;;;;;;;;;;5034803;28;28424;-86
2022/05/24 14:22:01;;;;;;;;;;;;;;;;;;5034303;28;28682;-86
2022/05/24 14:24:27;;;;;;;;;;;;;;;;;;5034410;28;28554;-85
2022/05/24 14:26:54;;;;;;;;;;;;;;;;;;5034492;28;28501;-85
2022/05/24 14:29:22;;;;;;;;;;;;;;;;;;5033150;28;28570;-86
2022/05/24 14:31:50;;;;;;;;;;;;;;;;;;5034122;28;28511;-86
2022/05/24 14:34:15;;;;;;;;;;;;;;;;;;5034194;28;28467;-84
2022/05/24 14:36:43;;;;;;;;;;;;;;;;;;5035494;28;28492;-85
2022/05/24 14:39:08;;;;;;;;;;;;;;;;;;5049552;28;28432;-84
2022/05/24 14:41:33;;;;;;;;;;;;;;;;;;5034919;28;28420;-86
2022/05/24 14:44:00;;;;;;;;;;;;;;;;;;5054461;28;28388;-86
2022/05/24 14:46:27;;;;;;;;;;;;;;;;;;5040407;28;28401;-90
2022/05/24 14:48:53;;;;;;;;;;;;;;;;;;5049626;28;27951;-87
2022/05/24 14:51:18;;;;;;;;;;;;;;;;;;5029553;28;30161;-87
2022/05/24 14:53:43;;;;;;;;;;;;;;;;;;5031129;28;28537;-87
2022/05/24 14:56:11;;;;;;;;;;;;;;;;;;5020549;28;28719;-87
2022/05/24 14:58:36;;;;;;;;;;;;;;;;;;5033375;28;28448;-88
2022/05/24 15:01:01;;;;;;;;;;;;;;;;;;5034357;28;28407;-88
2022/05/24 15:03:26;;;;;;;;;;;;;;;;;;5034255;28;28463;-86
2022/05/24 15:05:51;;;;;;;;;;;;;;;;;;5036902;28;28510;-87
2022/05/24 15:16:30;;;;;;;;;;;;;;;;;;5033543;28;28531;-88
2022/05/24 15:18:55;;;;;;;;;;;;;;;;;;5033605;28;28408;-87
2022/05/24 15:21:20;;;;;;;;;;;;;;;;;;5033088;28;28436;-87
2022/05/24 15:23:45;;;;;;;;;;;;;;;;;;5032954;28;28505;-87
2022/05/24 15:26:11;;;;;;;;;;;;;;;;;;5033682;28;28347;-86
2022/05/24 15:28:37;;;;;;;;;;;;;;;;;;5033499;28;28514;-87
2022/05/24 15:31:02;;;;;;;;;;;;;;;;;;5039589;28;28624;-87
2022/05/24 15:33:27;;;;;;;;;;;;;;;;;;5051383;28;28609;-87
2022/05/24 15:35:54;;;;;;;;;;;;;;;;;;5038481;28;28545;-87
2022/05/24 15:38:20;;;;;;;;;;;;;;;;;;5033751;28;28631;-85
2022/05/24 15:40:45;;;;;;;;;;;;;;;;;;5033835;28;29178;-86
2022/05/24 15:43:13;;;;;;;;;;;;;;;;;;5033614;28;28463;-87
2022/05/24 15:45:38;;;;;;;;;;;;;;;;;;5033956;28;28361;-87
2022/05/24 15:48:03;;;;;;;;;;;;;;;;;;5033646;28;28383;-87
2022/05/24 15:50:28;;;;;;;;;;;;;;;;;;5035262;28;28429;-87
2022/05/24 15:52:53;;;;;;;;;;;;;;;;;;5037133;28;28411;-88
2022/05/24 15:55:18;;;;;;;;;;;;;;;;;;5036977;28;28305;-88
2022/05/24 15:57:43;;;;;;;;;;;;;;;;;;5037513;28;28313;-87
2022/05/24 16:00:10;;;;;;;;;;;;;;;;;;5036618;28;28671;-87
2022/05/24 16:02:35;;;;;;;;;;;;;;;;;;5037091;28;28409;-87
2022/05/24 16:10:28;;;;;;;;;;;;;;;;;;5036942;28;28406;-86
2022/05/24 16:12:54;;;;;;;;;;;;;;;;;;5036975;28;29012;-87
2022/05/24 16:15:19;;;;;;;;;;;;;;;;;;5037111;28;27820;-86
2022/05/24 16:17:44;;;;;;;;;;;;;;;;;;5037380;28;28849;-87
2022/05/24 16:20:09;;;;;;;;;;;;;;;;;;5018786;28;30805;-86
2022/05/24 16:22:34;;;;;;;;;;;;;;;;;;5039558;28;28508;-87
2022/05/24 16:24:59;;;;;;;;;;;;;;;;;;5036765;28;28470;-87
2022/05/24 16:27:25;;;;;;;;;;;;;;;;;;5036832;28;35273;-87
2022/05/24 16:29:51;;;;;;;;;;;;;;;;;;5036551;28;28457;-86
2022/05/24 16:32:16;;;;;;;;;;;;;;;;;;5038990;28;28478;-89
2022/05/24 16:34:41;;;;;;;;;;;;;;;;;;5036754;28;28431;-85
2022/05/24 16:37:06;;;;;;;;;;;;;;;;;;5039099;28;28423;-84
2022/05/24 16:39:31;;;;;;;;;;;;;;;;;;5037456;28;28434;-84
2022/05/24 16:41:56;;;;;;;;;;;;;;;;;;5036359;28;28700;-88
2022/05/24 16:44:21;;;;;;;;;;;;;;;;;;5053915;28;28328;-86
2022/05/24 16:46:47;;;;;;;;;;;;;;;;;;5043833;28;28355;-85
2022/05/24 16:49:12;;;;;;;;;;;;;;;;;;5043825;28;28537;-86
2022/05/24 16:51:39;;;;;;;;;;;;;;;;;;5038823;28;28519;-91
2022/05/24 16:58:42;;;;;;;;;;;;;;;;;;5036394;28;28412;-93
2022/05/24 16:59:45;;;;;;;;;;;;;;;;;;4974688;28;28510;-93
2022/05/24 17:02:10;;;;;;;;;;;;;;;;;;4967552;28;27816;-96
2022/05/24 17:04:35;;;;;;;;;;;;;;;;;;4965982;28;28541;-91
2022/05/24 17:07:01;;;;;;;;;;;;;;;;;;4974792;28;28343;-89
2022/05/24 17:09:26;;;;;;;;;;;;;;;;;;4974540;28;29057;-90
2022/05/24 17:11:51;;;;;;;;;;;;;;;;;;4974655;28;28560;-90
2022/05/24 17:14:16;;;;;;;;;;;;;;;;;;4973733;28;28511;-90
2022/05/24 17:16:41;;;;;;;;;;;;;;;;;;4957710;28;28396;-90
2022/05/24 17:19:10;;;;;;;;;;;;;;;;;;4974745;28;28388;-90
2022/05/24 17:21:36;;;;;;;;;;;;;;;;;;4974396;28;28398;-90
2022/05/24 17:24:01;;;;;;;;;;;;;;;;;;4974123;28;28510;-89
2022/05/24 17:26:27;;;;;;;;;;;;;;;;;;4973932;28;28477;-88
2022/05/24 17:28:52;;;;;;;;;;;;;;;;;;4973267;28;28676;-91
2022/05/24 17:31:18;;;;;;;;;;;;;;;;;;4974192;28;28501;-90
2022/05/24 17:33:43;;;;;;;;;;;;;;;;;;4974316;28;28939;-91